Time;durP1;ratioP1;P1;durP2;ratioP2;P2;SDS_P1;SDS_P2;PMS_P1;PMS_P2;Temp;Humidity;BMP_temperature;BMP_pressure;BME280_temperature;BME280_humidity;BME280_pressure;Samples;Min_cycle;Max_cycle;Signal;HPM_P1;HPM_P2
2022/07/04 00:00:50;;;;;;;10.20;6.00;;;16.30;99.90;;;;;;4430773;28;657597;-64
2022/07/04 00:03:37;;;;;;;8.13;5.80;;;16.30;99.90;;;;;;4439096;28;659123;-62
2022/07/04 00:06:24;;;;;;;8.07;5.43;;;16.30;99.90;;;;;;4436290;28;657826;-62
2022/07/04 00:09:11;;;;;;;7.60;5.30;;;16.20;99.90;;;;;;4417216;28;657687;-62
2022/07/04 00:12:00;;;;;;;7.73;5.90;;;16.20;99.90;;;;;;4436573;28;658315;-62
2022/07/04 00:14:47;;;;;;;10.00;6.00;;;16.20;99.90;;;;;;4413072;28;658919;-62
2022/07/04 00:17:34;;;;;;;9.63;6.87;;;16.10;99.90;;;;;;4434957;28;658906;-62
2022/07/04 00:20:21;;;;;;;10.00;6.90;;;16.10;99.90;;;;;;4415128;28;657882;-62
2022/07/04 00:23:08;;;;;;;11.57;6.43;;;16.10;99.90;;;;;;4435032;28;658852;-62
2022/07/04 00:25:56;;;;;;;10.40;6.80;;;16.10;99.90;;;;;;4415719;28;658944;-63
2022/07/04 00:28:44;;;;;;;11.00;6.93;;;16.00;99.90;;;;;;4435008;28;659232;-62
2022/07/04 00:31:31;;;;;;;11.63;7.53;;;15.90;99.90;;;;;;4415336;28;658238;-62
2022/07/04 00:34:18;;;;;;;13.70;7.40;;;15.80;99.90;;;;;;4435024;28;660524;-62
2022/07/04 00:37:05;;;;;;;8.90;7.10;;;15.70;99.90;;;;;;4415890;28;658811;-63
2022/07/04 00:39:55;;;;;;;12.47;6.97;;;15.70;99.90;;;;;;4424498;28;659113;-62
2022/07/04 00:42:42;;;;;;;9.83;7.07;;;15.80;99.90;;;;;;4412047;28;660810;-62
2022/07/04 00:45:30;;;;;;;15.37;7.70;;;15.80;99.90;;;;;;4429305;28;657674;-62
2022/07/04 00:48:18;;;;;;;9.90;6.90;;;15.80;99.90;;;;;;4378474;28;660679;-62
2022/07/04 00:51:05;;;;;;;8.98;7.15;;;15.80;99.90;;;;;;4383896;28;657555;-63
2022/07/04 00:53:53;;;;;;;9.20;6.87;;;15.70;99.90;;;;;;4406610;28;658110;-62
2022/07/04 00:56:42;;;;;;;11.33;6.63;;;15.60;99.90;;;;;;4391740;28;658291;-63
2022/07/04 00:59:29;;;;;;;8.80;7.00;;;15.60;99.90;;;;;;4401700;28;658756;-62
2022/07/04 01:02:17;;;;;;;12.87;7.33;;;15.60;99.90;;;;;;4381415;28;658140;-63
2022/07/04 01:05:06;;;;;;;13.03;7.70;;;15.50;99.90;;;;;;4397700;28;658677;-64
2022/07/04 01:07:54;;;;;;;11.20;7.10;;;15.50;99.90;;;;;;4398149;28;659280;-62
2022/07/04 01:10:41;;;;;;;11.40;7.50;;;15.40;99.90;;;;;;4379766;28;658555;-63
2022/07/04 01:13:28;;;;;;;10.07;6.53;;;15.40;99.90;;;;;;4402385;28;659015;-63
2022/07/04 01:16:15;;;;;;;9.53;7.13;;;15.40;99.90;;;;;;4384222;28;658576;-64
2022/07/04 01:19:04;;;;;;;11.07;7.65;;;15.40;99.90;;;;;;4403546;28;658668;-62
2022/07/04 01:21:52;;;;;;;10.57;6.80;;;15.40;99.90;;;;;;4379374;28;658436;-63
2022/07/04 01:24:39;;;;;;;9.43;7.20;;;15.40;99.90;;;;;;4398356;28;658756;-62
2022/07/04 01:27:26;;;;;;;13.50;7.30;;;15.40;99.90;;;;;;4377499;28;657695;-63
2022/07/04 01:30:13;;;;;;;12.03;7.23;;;15.30;99.90;;;;;;4398289;28;659643;-62
2022/07/04 01:33:00;;;;;;;11.23;7.13;;;15.30;99.90;;;;;;4394980;28;658656;-63
2022/07/04 01:35:48;;;;;;;9.53;7.30;;;15.10;99.90;;;;;;4413708;28;659682;-62
2022/07/04 01:38:36;;;;;;;10.50;7.23;;;15.10;99.90;;;;;;4396234;28;657589;-65
2022/07/04 01:41:24;;;;;;;8.83;6.53;;;15.20;99.90;;;;;;4413795;28;659152;-62
2022/07/04 01:44:11;;;;;;;11.07;6.77;;;15.20;99.90;;;;;;4396436;28;657415;-62
2022/07/04 01:46:58;;;;;;;8.40;6.50;;;15.10;99.90;;;;;;4417148;28;659348;-62
2022/07/04 01:49:45;;;;;;;8.23;6.60;;;15.10;99.90;;;;;;4401805;28;657826;-64
2022/07/04 01:52:32;;;;;;;10.50;6.77;;;15.00;99.90;;;;;;4419821;28;658107;-62
2022/07/04 01:55:21;;;;;;;11.33;7.00;;;15.00;99.90;;;;;;4414307;28;659310;-62
2022/07/04 01:58:08;;;;;;;11.63;6.63;;;15.00;99.90;;;;;;4391437;28;659036;-63
2022/07/04 02:04:01;;;;;;;8.40;6.30;;;15.00;99.90;;;;;;4378727;28;657860;-64
2022/07/04 02:06:48;;;;;;;7.70;6.40;;;15.00;99.90;;;;;;4418287;28;658851;-63
2022/07/04 02:09:35;;;;;;;9.37;6.37;;;14.90;99.90;;;;;;4399614;28;657509;-64
2022/07/04 02:15:28;;;;;;;9.13;6.10;;;14.90;99.90;;;;;;4392298;28;658377;-63
2022/07/04 02:18:15;;;;;;;10.90;6.37;;;14.80;99.90;;;;;;4396599;28;658216;-64
2022/07/04 02:21:03;;;;;;;10.37;7.13;;;14.80;99.90;;;;;;4413523;28;660203;-62
2022/07/04 02:23:50;;;;;;;8.90;6.43;;;14.80;99.90;;;;;;4394971;28;658648;-63
2022/07/04 02:26:38;;;;;;;11.73;6.87;;;14.70;99.90;;;;;;4415216;28;659647;-63
2022/07/04 02:29:26;;;;;;;8.17;6.20;;;14.80;99.90;;;;;;4407335;28;659414;-64
2022/07/04 02:32:13;;;;;;;8.87;6.60;;;14.80;99.90;;;;;;4426901;28;658287;-63
2022/07/04 02:35:01;;;;;;;8.67;6.23;;;14.80;99.90;;;;;;4413662;28;657635;-64
2022/07/04 02:37:48;;;;;;;7.97;6.27;;;14.90;99.90;;;;;;4436742;28;657597;-63
2022/07/04 02:40:35;;;;;;;8.13;6.47;;;14.80;99.90;;;;;;4422161;28;657763;-65
2022/07/04 02:43:22;;;;;;;7.67;6.43;;;14.70;99.90;;;;;;4436233;28;658178;-63
2022/07/04 02:46:11;;;;;;;11.73;6.63;;;14.70;99.90;;;;;;4421031;28;657897;-63
2022/07/04 02:48:58;;;;;;;9.43;6.33;;;14.70;99.90;;;;;;4390059;28;659145;-63
2022/07/04 02:51:45;;;;;;;9.73;6.73;;;14.70;99.90;;;;;;4401928;28;657575;-65
2022/07/04 02:54:32;;;;;;;7.87;6.30;;;14.80;99.90;;;;;;4417967;28;658798;-63
2022/07/04 02:57:19;;;;;;;8.47;5.97;;;14.70;99.90;;;;;;4413912;28;657392;-63
2022/07/04 03:00:07;;;;;;;11.40;6.23;;;14.80;99.90;;;;;;4394650;28;657450;-63
2022/07/04 03:02:56;;;;;;;8.37;6.77;;;14.70;99.90;;;;;;4407573;28;658992;-64
2022/07/04 03:05:43;;;;;;;9.00;6.57;;;14.80;99.90;;;;;;4413929;28;657857;-63
2022/07/04 03:08:31;;;;;;;8.07;6.50;;;14.80;99.90;;;;;;4394649;28;657995;-63
2022/07/04 03:11:18;;;;;;;7.90;6.07;;;14.70;99.90;;;;;;4417654;28;658428;-63
2022/07/04 03:14:05;;;;;;;8.07;6.10;;;14.70;99.90;;;;;;4401177;28;658112;-64
2022/07/04 03:16:52;;;;;;;7.57;6.25;;;14.70;99.90;;;;;;4417801;28;658272;-63
2022/07/04 03:19:41;;;;;;;9.47;6.07;;;14.70;99.90;;;;;;4413103;28;658378;-63
2022/07/04 03:22:28;;;;;;;8.33;6.00;;;14.80;99.90;;;;;;4390596;28;658581;-63
2022/07/04 03:25:15;;;;;;;12.48;6.70;;;14.80;99.90;;;;;;4396950;28;657778;-64
2022/07/04 03:28:02;;;;;;;9.23;6.22;;;14.90;99.90;;;;;;4416243;28;660286;-63
2022/07/04 03:30:49;;;;;;;10.37;6.40;;;14.90;99.90;;;;;;4412934;28;658150;-63
2022/07/04 03:33:36;;;;;;;8.33;6.53;;;15.00;99.90;;;;;;4393346;28;658730;-63
2022/07/04 03:36:25;;;;;;;11.80;6.53;;;15.20;99.90;;;;;;4413192;28;658199;-63
2022/07/04 03:39:12;;;;;;;7.80;5.60;;;15.30;99.90;;;;;;4393055;28;659167;-63
2022/07/04 03:41:59;;;;;;;9.97;6.43;;;15.30;99.90;;;;;;4412884;28;658336;-63
2022/07/04 03:44:46;;;;;;;9.30;6.45;;;15.40;99.90;;;;;;4394285;28;657618;-63
2022/07/04 03:47:33;;;;;;;8.68;6.70;;;15.50;99.90;;;;;;4435956;28;658832;-63
2022/07/04 03:50:20;;;;;;;9.80;6.27;;;15.50;99.90;;;;;;4412227;28;657171;-64
2022/07/04 03:53:09;;;;;;;9.63;6.33;;;15.50;99.90;;;;;;4431529;28;659045;-63
2022/07/04 03:55:56;;;;;;;9.73;7.07;;;15.60;99.90;;;;;;4412364;28;657652;-64
2022/07/04 03:58:44;;;;;;;10.07;7.30;;;15.70;99.90;;;;;;4434356;28;658312;-63
2022/07/04 04:01:31;;;;;;;7.43;6.20;;;15.80;99.90;;;;;;4411213;28;658613;-63
2022/07/04 04:07:23;;;;;;;8.03;6.33;;;16.00;99.90;;;;;;4408244;28;658126;-63
2022/07/04 04:10:12;;;;;;;8.67;6.20;;;16.10;99.90;;;;;;4422468;28;657566;-65
2022/07/04 04:12:59;;;;;;;8.97;6.27;;;16.20;99.90;;;;;;4431344;28;657491;-63
2022/07/04 04:15:46;;;;;;;9.43;6.67;;;16.20;99.90;;;;;;4412399;28;658105;-63
2022/07/04 04:18:33;;;;;;;8.63;6.57;;;16.40;99.90;;;;;;4434700;28;658398;-64
2022/07/04 04:21:20;;;;;;;8.80;6.60;;;16.50;99.90;;;;;;4411794;28;657691;-64
2022/07/04 04:24:08;;;;;;;9.30;6.70;;;16.60;99.90;;;;;;4431650;28;659223;-64
2022/07/04 04:26:56;;;;;;;9.47;6.70;;;16.70;99.90;;;;;;4422405;28;657456;-65
2022/07/04 04:29:43;;;;;;;8.97;6.87;;;16.90;99.90;;;;;;4431314;28;657876;-63
2022/07/04 04:32:31;;;;;;;13.80;7.10;;;17.00;99.90;;;;;;4411137;28;657674;-64
2022/07/04 04:35:19;;;;;;;14.53;6.80;;;17.10;99.90;;;;;;4433449;28;658948;-63
2022/07/04 04:38:06;;;;;;;11.53;7.23;;;17.30;99.90;;;;;;4410377;28;658972;-64
2022/07/04 04:40:53;;;;;;;11.07;6.63;;;17.40;99.90;;;;;;4436429;28;659066;-64
2022/07/04 04:43:41;;;;;;;11.37;7.40;;;17.60;99.90;;;;;;4414558;28;659263;-65
2022/07/04 04:46:28;;;;;;;9.30;6.90;;;17.70;99.90;;;;;;4407859;28;659125;-63
2022/07/04 04:49:16;;;;;;;9.17;6.73;;;17.90;99.90;;;;;;4381639;28;657531;-64
2022/07/04 04:52:05;;;;;;;10.37;6.87;;;18.00;99.90;;;;;;4399917;28;658130;-64
2022/07/04 04:54:52;;;;;;;9.77;7.07;;;18.10;99.90;;;;;;4379769;28;658961;-64
2022/07/04 04:57:39;;;;;;;9.27;6.67;;;18.20;99.90;;;;;;4399603;28;658124;-63
2022/07/04 05:00:28;;;;;;;10.40;7.00;;;18.40;99.90;;;;;;4381171;28;658094;-64
2022/07/04 05:03:15;;;;;;;11.00;7.47;;;18.50;99.90;;;;;;4385239;28;658649;-64
2022/07/04 05:06:02;;;;;;;11.40;7.67;;;18.70;99.90;;;;;;4402534;28;659280;-64
2022/07/04 05:08:49;;;;;;;12.13;7.40;;;18.90;99.90;;;;;;4398141;28;659153;-64
2022/07/04 05:11:36;;;;;;;9.97;7.53;;;19.00;99.90;;;;;;4376738;28;658907;-63
2022/07/04 05:14:23;;;;;;;12.77;7.93;;;19.10;99.90;;;;;;4399081;28;658554;-63
2022/07/04 05:17:12;;;;;;;14.30;8.03;;;19.20;99.90;;;;;;4379507;28;658489;-64
2022/07/04 05:19:59;;;;;;;15.23;8.43;;;19.30;99.90;;;;;;4396853;28;659543;-63
2022/07/04 05:22:46;;;;;;;11.97;7.80;;;19.40;99.90;;;;;;4379340;28;658513;-64
2022/07/04 05:25:33;;;;;;;11.20;7.80;;;19.50;99.90;;;;;;4398105;28;659788;-63
2022/07/04 05:28:20;;;;;;;11.00;7.33;;;19.70;99.90;;;;;;4377937;28;658130;-64
2022/07/04 05:31:07;;;;;;;12.53;7.83;;;19.70;99.90;;;;;;4401348;28;660239;-64
2022/07/04 05:33:56;;;;;;;10.83;7.67;;;19.80;99.90;;;;;;4412901;28;658553;-65
2022/07/04 05:36:44;;;;;;;12.53;7.60;;;20.00;99.90;;;;;;4413829;28;659276;-64
2022/07/04 05:39:31;;;;;;;11.90;8.93;;;20.10;99.90;;;;;;4394705;28;658927;-64
2022/07/04 05:42:18;;;;;;;10.23;7.90;;;20.20;99.90;;;;;;4415632;28;658136;-64
2022/07/04 05:45:07;;;;;;;15.57;8.27;;;20.30;99.90;;;;;;4394388;28;659295;-65
2022/07/04 05:47:54;;;;;;;11.90;8.17;;;20.40;99.90;;;;;;4414659;28;659379;-63
2022/07/04 05:50:42;;;;;;;10.13;7.83;;;20.50;99.90;;;;;;4395492;28;658521;-64
2022/07/04 05:53:29;;;;;;;11.17;8.23;;;20.60;99.90;;;;;;4414128;28;658568;-63
2022/07/04 05:56:17;;;;;;;14.07;8.70;;;20.80;99.90;;;;;;4395539;28;659573;-64
2022/07/04 05:59:04;;;;;;;13.30;8.47;;;20.80;99.90;;;;;;4418389;28;658426;-63
2022/07/04 06:01:51;;;;;;;10.48;8.02;;;20.70;99.90;;;;;;4392047;28;659404;-63
2022/07/04 06:04:38;;;;;;;12.13;8.00;;;20.70;99.90;;;;;;4416669;28;659063;-64
2022/07/04 06:07:26;;;;;;;10.37;8.33;;;20.80;99.90;;;;;;4397430;28;658595;-64
2022/07/04 06:10:14;;;;;;;11.23;7.67;;;20.80;99.90;;;;;;4414014;28;659355;-63
2022/07/04 06:13:01;;;;;;;10.63;8.60;;;20.90;99.90;;;;;;4395480;28;658954;-63
2022/07/04 06:15:48;;;;;;;13.30;8.37;;;21.10;99.90;;;;;;4418698;28;658493;-63
2022/07/04 06:18:35;;;;;;;9.87;8.17;;;21.20;99.90;;;;;;4403097;28;658869;-65
2022/07/04 06:21:22;;;;;;;10.40;8.30;;;21.50;99.90;;;;;;4419476;28;658863;-63
2022/07/04 06:24:11;;;;;;;12.10;9.50;;;21.70;99.90;;;;;;4413867;28;658823;-63
2022/07/04 06:26:58;;;;;;;12.03;9.40;;;21.60;99.90;;;;;;4391186;28;658824;-63
2022/07/04 06:29:45;;;;;;;11.13;8.90;;;21.80;99.90;;;;;;4399819;28;659311;-64
2022/07/04 06:32:41;;;;;;;13.33;8.87;;;21.90;99.90;;;;;;4417821;28;659281;-63
2022/07/04 06:35:54;;;;;;;12.23;9.57;;;22.20;99.90;;;;;;4389651;28;659175;-63
2022/07/04 06:38:41;;;;;;;13.17;8.73;;;22.40;99.90;;;;;;4393947;28;658824;-63
2022/07/04 06:41:29;;;;;;;10.13;8.77;;;22.40;99.90;;;;;;4417103;28;658505;-63
2022/07/04 06:44:16;;;;;;;13.63;8.90;;;22.60;99.90;;;;;;4390748;28;659314;-63
2022/07/04 06:47:04;;;;;;;13.17;8.63;;;22.70;99.90;;;;;;4395364;28;658379;-63
2022/07/04 06:49:51;;;;;;;11.47;9.17;;;22.80;99.90;;;;;;4376692;28;658436;-63
2022/07/04 06:52:38;;;;;;;14.50;9.37;;;22.90;99.90;;;;;;4398842;28;660052;-64
2022/07/04 06:55:25;;;;;;;10.17;7.90;;;23.10;99.90;;;;;;4377020;28;658890;-65
2022/07/04 06:58:14;;;;;;;12.87;8.90;;;23.20;99.90;;;;;;4399525;28;658821;-63
2022/07/04 07:01:01;;;;;;;16.70;8.77;;;23.30;99.90;;;;;;4375501;28;659834;-64
2022/07/04 07:03:48;;;;;;;14.27;8.60;;;23.40;99.90;;;;;;4399177;28;658616;-63
2022/07/04 07:06:35;;;;;;;15.80;9.70;;;23.40;99.90;;;;;;4385872;28;658826;-65
2022/07/04 07:09:22;;;;;;;15.37;8.20;;;23.40;99.90;;;;;;4399845;28;658840;-64
2022/07/04 07:12:10;;;;;;;16.30;8.90;;;23.80;99.90;;;;;;4395739;28;658619;-63
2022/07/04 07:14:58;;;;;;;8.63;7.53;;;24.00;99.90;;;;;;4372271;28;659793;-63
2022/07/04 07:17:45;;;;;;;11.23;8.57;;;24.20;99.90;;;;;;4377419;28;657861;-64
2022/07/04 07:20:32;;;;;;;12.13;8.23;;;24.20;99.90;;;;;;4399077;28;659242;-63
2022/07/04 07:23:19;;;;;;;12.87;8.13;;;24.40;99.90;;;;;;4395397;28;659001;-63
2022/07/04 07:26:06;;;;;;;11.07;7.80;;;24.40;99.90;;;;;;4376765;28;659064;-63
2022/07/04 07:28:53;;;;;;;10.83;8.20;;;24.30;99.90;;;;;;4395396;28;659348;-63
2022/07/04 07:31:42;;;;;;;12.17;8.43;;;24.10;99.90;;;;;;4384687;28;658519;-64
2022/07/04 07:34:29;;;;;;;9.80;7.70;;;24.50;99.90;;;;;;4412654;28;659555;-64
2022/07/04 07:37:17;;;;;;;12.37;7.73;;;24.80;99.90;;;;;;4390899;28;657743;-64
2022/07/04 07:40:05;;;;;;;10.03;7.50;;;25.20;99.90;;;;;;4412592;28;659191;-64
2022/07/04 07:42:54;;;;;;;11.40;7.87;;;24.80;97.30;;;;;;4390078;28;659437;-64
2022/07/04 07:45:41;;;;;;;8.30;6.27;;;25.20;94.30;;;;;;4392608;28;658841;-64
2022/07/04 07:48:29;;;;;;;8.20;6.60;;;25.20;90.30;;;;;;4414049;28;658445;-64
2022/07/04 07:51:16;;;;;;;7.60;5.97;;;25.60;90.10;;;;;;4395155;28;657941;-63
2022/07/04 07:54:04;;;;;;;12.38;6.13;;;25.50;86.00;;;;;;4413917;28;657950;-63
2022/07/04 07:56:51;;;;;;;7.20;6.20;;;25.80;86.80;;;;;;4393820;28;658438;-64
2022/07/04 07:59:38;;;;;;;10.13;6.63;;;26.00;85.50;;;;;;4418000;28;659190;-64
2022/07/04 08:05:28;;;;;;;8.40;5.78;;;26.10;84.90;;;;;;4366916;28;660181;-64
2022/07/04 08:08:15;;;;;;;8.02;5.10;;;25.80;84.40;;;;;;4399002;28;657624;-65
2022/07/04 08:11:02;;;;;;;6.75;5.72;;;26.00;80.50;;;;;;4418113;28;657953;-64
2022/07/04 08:13:50;;;;;;;7.18;5.72;;;25.80;85.10;;;;;;4417276;28;658100;-64
2022/07/04 08:16:37;;;;;;;8.02;5.90;;;26.30;83.60;;;;;;4398354;28;658213;-63
2022/07/04 08:19:25;;;;;;;8.40;6.95;;;26.30;80.40;;;;;;4417417;28;657443;-63
2022/07/04 08:22:13;;;;;;;9.05;6.68;;;26.40;83.40;;;;;;4394495;28;657683;-64
2022/07/04 08:25:00;;;;;;;7.00;6.30;;;26.40;89.00;;;;;;4398507;28;658083;-65
2022/07/04 08:27:47;;;;;;;7.80;6.35;;;26.70;81.70;;;;;;4417270;28;658702;-64
2022/07/04 08:30:35;;;;;;;10.55;6.88;;;26.40;81.20;;;;;;4414156;28;657468;-65
2022/07/04 08:33:22;;;;;;;8.77;6.28;;;26.90;80.40;;;;;;4420209;28;659591;-65
2022/07/04 08:36:09;;;;;;;8.80;6.22;;;26.60;78.80;;;;;;4416805;28;657913;-63
2022/07/04 08:38:58;;;;;;;8.35;6.57;;;26.80;80.30;;;;;;4398377;28;658233;-63
2022/07/04 08:41:45;;;;;;;9.50;6.72;;;26.90;77.80;;;;;;4399336;28;658459;-65
2022/07/04 08:44:32;;;;;;;7.78;6.93;;;26.80;79.60;;;;;;4420928;28;658450;-64
2022/07/04 08:47:20;;;;;;;7.45;4.93;;;27.00;79.50;;;;;;4382362;28;658648;-64
2022/07/04 08:50:11;;;;;;;6.53;5.13;;;27.40;70.00;;;;;;4359243;28;658835;-64
2022/07/04 08:53:00;;;;;;;5.47;4.90;;;27.50;70.40;;;;;;4359599;28;658979;-64
2022/07/04 08:58:54;;;;;;;7.43;5.93;;;27.70;73.00;;;;;;4359383;28;657239;-64
2022/07/04 09:01:42;;;;;;;9.85;5.70;;;28.00;67.70;;;;;;4363601;28;659023;-64
2022/07/04 09:04:29;;;;;;;7.68;5.85;;;28.00;68.00;;;;;;4384450;28;657586;-64
2022/07/04 09:07:17;;;;;;;7.82;6.07;;;27.90;68.20;;;;;;4363120;28;657502;-64
2022/07/04 09:10:05;;;;;;;6.20;5.00;;;27.40;69.00;;;;;;4382127;28;657955;-64
2022/07/04 09:12:53;;;;;;;7.68;5.00;;;27.20;66.50;;;;;;4363299;28;657491;-64
2022/07/04 09:15:41;;;;;;;7.50;5.88;;;27.90;65.50;;;;;;4363230;28;657735;-64
2022/07/04 09:18:29;;;;;;;6.47;5.05;;;28.00;69.10;;;;;;4384974;28;658178;-64
2022/07/04 09:21:16;;;;;;;5.22;4.43;;;29.10;65.60;;;;;;4362522;28;657388;-63
2022/07/04 09:24:03;;;;;;;6.18;5.32;;;28.80;61.50;;;;;;4381287;28;658099;-64
2022/07/04 09:26:51;;;;;;;9.40;6.63;;;28.20;64.10;;;;;;4362855;28;657580;-64
2022/07/04 09:29:40;;;;;;;7.88;6.30;;;28.80;66.80;;;;;;4381497;28;658110;-64
2022/07/04 09:32:37;;;;;;;9.55;6.13;;;29.40;63.50;;;;;;4371430;28;659302;-64
2022/07/04 09:35:24;;;;;;;10.05;6.05;;;29.20;67.90;;;;;;4375231;28;658231;-64
2022/07/04 09:38:12;;;;;;;9.20;6.88;;;29.90;66.00;;;;;;4373672;28;660072;-64
2022/07/04 09:44:06;;;;;;;7.40;6.13;;;29.10;65.40;;;;;;4360886;28;657351;-65
2022/07/04 09:46:54;;;;;;;7.53;5.70;;;29.30;62.90;;;;;;4413507;28;658687;-64
2022/07/04 09:49:41;;;;;;;8.55;5.88;;;29.10;63.10;;;;;;4395951;28;657340;-64
2022/07/04 09:52:29;;;;;;;7.13;5.80;;;29.30;60.40;;;;;;4414860;28;658107;-64
2022/07/04 09:55:25;;;;;;;6.55;5.80;;;30.20;62.90;;;;;;4396214;28;658524;-65
2022/07/04 09:58:12;;;;;;;9.75;5.78;;;30.30;59.00;;;;;;4369050;28;657649;-64
2022/07/04 10:01:00;;;;;;;6.60;5.40;;;29.90;61.50;;;;;;4413858;28;657748;-65
2022/07/04 10:03:49;;;;;;;7.22;5.20;;;29.80;59.30;;;;;;4414464;28;658808;-64
2022/07/04 10:06:38;;;;;;;6.43;5.32;;;28.70;60.30;;;;;;4394366;28;657412;-64
2022/07/04 10:09:25;;;;;;;6.82;5.65;;;28.00;60.20;;;;;;4398336;28;657522;-65
2022/07/04 10:12:12;;;;;;;6.70;5.00;;;28.50;63.80;;;;;;4418689;28;657809;-64
2022/07/04 10:14:59;;;;;;;6.15;5.32;;;29.60;63.20;;;;;;4414372;28;658122;-64
2022/07/04 10:17:47;;;;;;;8.00;5.60;;;30.10;58.60;;;;;;4395720;28;657849;-64
2022/07/04 10:20:35;;;;;;;8.77;5.40;;;30.00;57.20;;;;;;4413171;28;658616;-64
2022/07/04 10:23:23;;;;;;;8.23;5.90;;;30.20;57.60;;;;;;4391458;28;658310;-64
2022/07/04 10:26:10;;;;;;;7.85;5.80;;;29.70;59.80;;;;;;4395444;28;657812;-64
2022/07/04 10:28:58;;;;;;;10.20;6.05;;;30.10;60.60;;;;;;4414352;28;659238;-65
2022/07/04 10:31:45;;;;;;;9.93;6.18;;;29.50;59.20;;;;;;4403705;28;658660;-65
2022/07/04 10:34:32;;;;;;;10.15;6.43;;;28.90;62.30;;;;;;4418204;28;658562;-64
2022/07/04 10:37:21;;;;;;;14.02;6.35;;;29.50;63.70;;;;;;4412909;28;658730;-64
2022/07/04 10:40:10;;;;;;;9.60;6.50;;;29.90;60.70;;;;;;4389803;28;659822;-64
2022/07/04 10:42:57;;;;;;;7.95;6.15;;;30.30;59.60;;;;;;4391255;28;659268;-64
2022/07/04 10:45:44;;;;;;;12.13;6.72;;;31.00;61.20;;;;;;4425345;28;657711;-64
2022/07/04 10:48:31;;;;;;;12.77;6.90;;;31.20;62.40;;;;;;4411499;28;658773;-64
2022/07/04 10:51:32;;;;;;;8.82;6.47;;;31.50;59.20;;;;;;4430417;28;660588;-64
2022/07/04 10:54:21;;;;;;;10.30;7.10;;;31.40;59.50;;;;;;4408525;28;657650;-64
2022/07/04 10:57:14;;;;;;;9.20;6.25;;;31.00;60.00;;;;;;4406868;28;659011;-64
2022/07/04 11:00:06;;;;;;;7.60;6.82;;;30.80;61.50;;;;;;4385524;28;658151;-64
2022/07/04 11:02:54;;;;;;;11.25;6.53;;;31.00;61.70;;;;;;4408331;28;658116;-64
2022/07/04 11:05:41;;;;;;;7.65;5.22;;;30.60;60.50;;;;;;4410319;28;659084;-64
2022/07/04 11:08:28;;;;;;;6.15;5.55;;;30.90;59.50;;;;;;4430966;28;658602;-64
2022/07/04 11:11:45;;;;;;;7.68;5.32;;;29.80;60.50;;;;;;4412264;28;657392;-64
2022/07/04 11:14:36;;;;;;;9.20;4.87;;;30.30;59.50;;;;;;4389225;28;657990;-64
2022/07/04 11:17:32;;;;;;;5.68;4.80;;;30.30;58.70;;;;;;4408024;28;658332;-64
2022/07/04 11:20:20;;;;;;;7.13;5.32;;;29.30;60.10;;;;;;4428252;28;657764;-63
2022/07/04 11:23:07;;;;;;;10.43;5.07;;;29.10;58.80;;;;;;4430168;28;658845;-64
2022/07/04 11:25:56;;;;;;;5.97;5.38;;;30.00;59.10;;;;;;4425647;28;658633;-64
2022/07/04 11:28:43;;;;;;;8.43;4.70;;;30.80;58.90;;;;;;4430573;28;658560;-64
2022/07/04 11:31:42;;;;;;;4.32;3.92;;;31.00;56.20;;;;;;4411529;28;658173;-65
2022/07/04 11:34:32;;;;;;;5.55;4.65;;;30.70;56.80;;;;;;4407387;28;658125;-64
2022/07/04 11:37:20;;;;;;;9.70;4.60;;;30.30;57.90;;;;;;4407660;28;657744;-65
2022/07/04 11:46:15;;;;;;;7.20;4.38;;;31.50;56.20;;;;;;4376147;28;658544;-66
2022/07/04 11:49:10;;;;;;;5.82;3.92;;;31.40;54.20;;;;;;4401723;28;658107;-64
2022/07/04 11:51:57;;;;;;;7.90;4.40;;;30.80;54.90;;;;;;4352032;28;658591;-64
2022/07/04 11:54:44;;;;;;;6.85;4.22;;;30.50;54.90;;;;;;4395241;28;658457;-64
2022/07/04 11:57:34;;;;;;;5.95;4.50;;;31.20;53.10;;;;;;4378457;28;657602;-64
2022/07/04 12:00:22;;;;;;;5.73;4.47;;;31.90;53.20;;;;;;4374545;28;657832;-64
2022/07/04 12:03:09;;;;;;;3.85;3.20;;;32.30;51.80;;;;;;4397088;28;658136;-64
2022/07/04 12:06:02;;;;;;;4.80;3.25;;;32.20;50.60;;;;;;4378558;28;659046;-64
2022/07/04 12:08:49;;;;;;;4.30;3.57;;;30.80;52.00;;;;;;4374214;28;657555;-63
2022/07/04 12:11:55;;;;;;;4.33;3.27;;;31.00;53.40;;;;;;4375644;28;657945;-64
2022/07/04 12:14:59;;;;;;;3.30;3.00;;;30.70;50.70;;;;;;4350790;28;658164;-64
2022/07/04 12:17:49;;;;;;;6.32;3.40;;;31.30;51.20;;;;;;4351577;28;659003;-64
2022/07/04 12:20:36;;;;;;;4.07;3.50;;;31.90;52.50;;;;;;4374403;28;658612;-64
2022/07/04 12:23:25;;;;;;;6.30;3.65;;;31.10;52.10;;;;;;4396577;28;658605;-63
2022/07/04 12:26:13;;;;;;;6.15;3.60;;;31.70;51.40;;;;;;4378531;28;658639;-64
2022/07/04 12:29:00;;;;;;;4.03;3.05;;;31.60;50.30;;;;;;4388044;28;657438;-65
2022/07/04 12:31:50;;;;;;;4.00;3.15;;;32.20;49.70;;;;;;4409036;28;657437;-63
2022/07/04 12:34:38;;;;;;;3.17;2.63;;;31.70;50.80;;;;;;4390190;28;659085;-64
2022/07/04 12:37:25;;;;;;;3.80;2.67;;;30.60;48.90;;;;;;4405849;28;657573;-64
2022/07/04 12:40:14;;;;;;;2.97;2.00;;;30.20;49.70;;;;;;4416540;28;658320;-64
2022/07/04 12:43:02;;;;;;;5.20;2.20;;;30.70;47.20;;;;;;4394373;28;659052;-65
2022/07/04 12:45:50;;;;;;;8.18;2.10;;;30.80;47.20;;;;;;4420902;28;658917;-64
2022/07/04 12:48:37;;;;;;;5.72;2.35;;;30.40;48.00;;;;;;4411431;28;658730;-64
2022/07/04 12:51:25;;;;;;;3.67;2.42;;;30.70;48.20;;;;;;4430481;28;657038;-64
2022/07/04 12:54:12;;;;;;;3.55;2.30;;;31.30;48.10;;;;;;4407599;28;658313;-64
2022/07/04 12:57:10;;;;;;;5.47;2.65;;;31.00;47.40;;;;;;4430409;28;658102;-64
2022/07/04 12:59:57;;;;;;;6.47;2.40;;;31.30;49.20;;;;;;4384406;28;658832;-64
2022/07/04 13:02:45;;;;;;;4.13;2.40;;;31.30;47.40;;;;;;4430367;28;657530;-65
2022/07/04 13:05:34;;;;;;;2.83;1.80;;;30.90;48.50;;;;;;4437034;28;658493;-65
2022/07/04 13:08:21;;;;;;;4.32;2.20;;;30.80;48.20;;;;;;4414066;28;658080;-64
2022/07/04 13:14:14;;;;;;;10.02;2.40;;;31.50;48.20;;;;;;4410183;28;657968;-64
2022/07/04 13:17:02;;;;;;;4.55;1.95;;;32.00;48.60;;;;;;4412938;28;660052;-64
2022/07/04 13:19:49;;;;;;;6.70;2.25;;;32.10;46.90;;;;;;4432628;28;657411;-64
2022/07/04 13:22:36;;;;;;;2.00;1.65;;;32.10;42.80;;;;;;4413517;28;657619;-64
2022/07/04 13:25:23;;;;;;;2.30;1.90;;;32.00;44.70;;;;;;4436586;28;658331;-63
2022/07/04 13:28:10;;;;;;;3.25;1.80;;;32.20;44.00;;;;;;4414113;28;657675;-65
2022/07/04 13:30:59;;;;;;;2.70;1.50;;;32.10;44.10;;;;;;4436430;28;657976;-64
2022/07/04 13:33:46;;;;;;;3.28;1.42;;;32.20;43.60;;;;;;4413836;28;657871;-64
2022/07/04 13:36:33;;;;;;;4.07;1.60;;;31.60;43.80;;;;;;4435700;28;658615;-64
2022/07/04 13:39:21;;;;;;;3.83;1.90;;;31.30;45.00;;;;;;4418610;28;658114;-65
2022/07/04 13:42:08;;;;;;;3.03;1.90;;;31.10;45.00;;;;;;4435854;28;658152;-63
2022/07/04 13:44:55;;;;;;;2.80;1.77;;;31.70;45.20;;;;;;4413909;28;657938;-65
2022/07/04 13:47:44;;;;;;;3.72;1.90;;;31.40;44.90;;;;;;4403800;28;657854;-64
2022/07/04 13:50:31;;;;;;;6.45;2.28;;;31.10;46.30;;;;;;4379563;28;657500;-64
2022/07/04 13:53:18;;;;;;;4.13;1.92;;;30.80;45.00;;;;;;4398959;28;658662;-64
2022/07/04 13:56:05;;;;;;;2.28;1.73;;;31.30;45.90;;;;;;4380177;28;657511;-65
2022/07/04 13:58:52;;;;;;;3.50;1.85;;;31.70;45.20;;;;;;4402631;28;658307;-64
2022/07/04 14:01:40;;;;;;;4.50;1.80;;;31.90;44.50;;;;;;4398708;28;657413;-64
2022/07/04 14:04:28;;;;;;;3.47;2.08;;;32.00;44.60;;;;;;4376422;28;659165;-64
2022/07/04 14:07:15;;;;;;;6.00;2.00;;;32.50;45.70;;;;;;4380076;28;657390;-65
2022/07/04 14:10:02;;;;;;;5.07;1.98;;;32.10;44.80;;;;;;4402074;28;658915;-64
2022/07/04 14:12:50;;;;;;;6.40;2.40;;;31.90;44.80;;;;;;4391804;28;657616;-65
2022/07/04 14:15:37;;;;;;;1.97;1.87;;;32.40;44.30;;;;;;4402786;28;658345;-64
2022/07/04 14:18:24;;;;;;;3.58;1.90;;;32.50;42.80;;;;;;4398363;28;657359;-64
2022/07/04 14:21:13;;;;;;;4.13;2.25;;;32.10;45.10;;;;;;4379994;28;657749;-64
2022/07/04 14:24:00;;;;;;;2.55;2.10;;;32.60;44.00;;;;;;4382817;28;657534;-65
2022/07/04 14:26:47;;;;;;;4.78;2.03;;;32.70;44.70;;;;;;4402501;28;658048;-64
2022/07/04 14:29:35;;;;;;;2.45;2.13;;;32.00;45.30;;;;;;4398151;28;658467;-64
2022/07/04 14:32:22;;;;;;;2.33;1.90;;;30.80;46.90;;;;;;4391555;28;658727;-64
2022/07/04 14:35:09;;;;;;;3.20;2.20;;;30.50;48.20;;;;;;4414237;28;657876;-64
2022/07/04 14:37:58;;;;;;;6.43;2.43;;;30.20;49.10;;;;;;4393838;28;658205;-64
2022/07/04 14:40:48;;;;;;;3.65;2.38;;;30.10;49.40;;;;;;4406510;28;657541;-65
2022/07/04 14:43:37;;;;;;;4.57;2.20;;;30.00;49.00;;;;;;4395539;28;657551;-65
2022/07/04 14:46:24;;;;;;;4.93;2.40;;;30.00;49.30;;;;;;4426212;28;658018;-64